createdAt,value
2022-09-23T00:01:15.912Z,100756.28
2022-09-23T00:03:45.660Z,100750.03
2022-09-23T00:06:19.977Z,100752.38
2022-09-23T00:08:49.642Z,100752.81
2022-09-23T00:11:25.846Z,100751.69
2022-09-23T00:13:59.282Z,100751.56
2022-09-23T00:16:31.169Z,100744.41
2022-09-23T00:18:58.471Z,100752.44
2022-09-23T00:21:25.412Z,100753.69
2022-09-23T00:23:52.785Z,100751.13
2022-09-23T00:26:22.191Z,100748.28
2022-09-23T00:28:50.472Z,100740.97
2022-09-23T00:31:22.605Z,100744.50
2022-09-23T00:33:56.740Z,100746.97
2022-09-23T00:36:24.837Z,100746.25
2022-09-23T00:38:52.206Z,100749.75
2022-09-23T00:41:19.465Z,100753.28
2022-09-23T00:43:57.107Z,100747.22
2022-09-23T00:46:36.527Z,100743.75
2022-09-23T00:49:22.748Z,100741.38
2022-09-23T00:51:56.788Z,100746.06
2022-09-23T00:54:27.389Z,100743.06
2022-09-23T00:56:57.023Z,100749.66
2022-09-23T00:59:26.175Z,100735.22
2022-09-23T01:01:55.611Z,100737.88
2022-09-23T01:04:25.257Z,100744.19
2022-09-23T01:06:52.227Z,100743.28
2022-09-23T01:09:20.591Z,100747.78
2022-09-23T01:12:06.014Z,100737.91
2022-09-23T01:14:48.739Z,100745.63
2022-09-23T01:17:30.447Z,100739.81
2022-09-23T01:20:42.012Z,100740.94
2022-09-23T01:23:42.674Z,100739.00
2022-09-23T01:26:51.844Z,100736.03
2022-09-23T01:29:37.545Z,100741.53
2022-09-23T01:32:37.719Z,100742.28
2022-09-23T01:35:23.769Z,100736.53
2022-09-23T01:38:29.031Z,100739.47
2022-09-23T01:41:25.807Z,100736.91
2022-09-23T01:44:10.739Z,100735.16
2022-09-23T01:47:18.850Z,100733.34
2022-09-23T01:50:00.416Z,100729.69
2022-09-23T01:52:44.560Z,100733.38
2022-09-23T01:55:23.947Z,100732.88
2022-09-23T01:58:09.901Z,100739.19
2022-09-23T02:00:44.415Z,100732.66
2022-09-23T02:03:27.806Z,100722.47
2022-09-23T02:06:02.135Z,100725.66
2022-09-23T02:08:42.517Z,100725.88
2022-09-23T02:11:14.139Z,100725.50
2022-09-23T02:14:14.536Z,100731.00
2022-09-23T02:16:58.395Z,100737.41
2022-09-23T02:19:51.543Z,100732.31
2022-09-23T02:23:04.355Z,100741.16
2022-09-23T02:25:55.344Z,100729.06
2022-09-23T02:28:51.888Z,100735.81
2022-09-23T02:31:41.836Z,100731.31
2022-09-23T02:34:30.818Z,100729.91
2022-09-23T02:37:44.735Z,100727.22
2022-09-23T02:40:38.070Z,100727.44
2022-09-23T02:43:35.688Z,100723.28
2022-09-23T02:46:04.957Z,100729.28
2022-09-23T02:48:56.745Z,100730.94
2022-09-23T02:51:28.903Z,100725.97
2022-09-23T02:53:57.802Z,100729.78
2022-09-23T02:56:25.087Z,100727.81
2022-09-23T02:58:54.404Z,100723.06
2022-09-23T03:01:53.022Z,100733.88
2022-09-23T03:04:53.917Z,100732.91
2022-09-23T03:07:51.291Z,100721.94
2022-09-23T03:10:33.805Z,100733.75
2022-09-23T03:13:28.627Z,100737.97
2022-09-23T03:16:32.633Z,100730.72
2022-09-23T03:19:19.742Z,100729.69
2022-09-23T03:22:14.073Z,100727.88
2022-09-23T03:24:45.142Z,100718.56
2022-09-23T03:27:22.005Z,100734.13
2022-09-23T03:29:52.065Z,100730.72
2022-09-23T03:32:23.611Z,100722.31
2022-09-23T03:34:54.829Z,100728.47
2022-09-23T03:37:44.770Z,100730.44
2022-09-23T03:40:24.141Z,100729.72
2022-09-23T03:42:52.220Z,100724.88
2022-09-23T03:45:26.691Z,100712.31
2022-09-23T03:47:53.713Z,100719.69
2022-09-23T03:50:21.389Z,100718.13
2022-09-23T03:52:49.758Z,100716.91
2022-09-23T03:55:18.230Z,100717.88
2022-09-23T03:57:45.539Z,100711.25
2022-09-23T04:00:15.028Z,100711.03
2022-09-23T04:02:42.624Z,100715.47
2022-09-23T04:05:11.786Z,100714.88
2022-09-23T04:07:38.908Z,100718.84
2022-09-23T04:10:07.441Z,100725.41
2022-09-23T04:12:34.390Z,100717.22
2022-09-23T04:15:01.459Z,100723.72
2022-09-23T04:17:28.541Z,100725.34
2022-09-23T04:19:55.580Z,100725.41
2022-09-23T04:22:22.553Z,100723.22
2022-09-23T04:24:49.483Z,100718.16
2022-09-23T04:27:16.730Z,100720.56
2022-09-23T04:29:43.676Z,100719.47
2022-09-23T04:32:10.792Z,100720.81
2022-09-23T04:34:37.786Z,100722.78
2022-09-23T04:37:04.866Z,100731.03
2022-09-23T04:39:31.898Z,100723.66
2022-09-23T04:41:59.783Z,100726.06
2022-09-23T04:44:28.344Z,100712.25
2022-09-23T04:46:55.362Z,100722.69
2022-09-23T04:49:23.588Z,100721.78
2022-09-23T04:51:50.493Z,100720.13
2022-09-23T04:54:17.460Z,100725.38
2022-09-23T04:56:44.411Z,100724.56
2022-09-23T04:59:11.472Z,100724.28
2022-09-23T05:01:38.729Z,100732.34
2022-09-23T05:04:11.052Z,100726.09
2022-09-23T05:06:38.359Z,100719.88
2022-09-23T05:09:08.896Z,100718.88
2022-09-23T05:11:36.397Z,100721.63
2022-09-23T05:14:03.413Z,100722.31
2022-09-23T05:16:30.410Z,100723.84
2022-09-23T05:18:58.143Z,100710.59
2022-09-23T05:21:31.851Z,100721.00
2022-09-23T05:24:00.782Z,100721.00
2022-09-23T05:26:31.082Z,100722.53
2022-09-23T05:28:59.142Z,100720.50
2022-09-23T05:31:29.077Z,100712.47
2022-09-23T05:33:59.310Z,100715.78
2022-09-23T05:36:27.556Z,100716.72
2022-09-23T05:38:56.566Z,100725.97
2022-09-23T05:41:25.383Z,100724.75
2022-09-23T05:43:54.574Z,100726.03
2022-09-23T05:46:25.444Z,100727.84
2022-09-23T05:48:52.567Z,100735.91
2022-09-23T05:51:30.131Z,100742.31
2022-09-23T05:53:58.439Z,100738.59
2022-09-23T05:56:27.758Z,100731.78
2022-09-23T05:58:57.946Z,100732.94
2022-09-23T06:01:28.803Z,100726.06
2022-09-23T06:03:57.654Z,100736.94
2022-09-23T06:06:36.099Z,100739.41
2022-09-23T06:09:03.633Z,100734.34
2022-09-23T06:11:32.487Z,100741.38
2022-09-23T06:14:03.317Z,100738.22
2022-09-23T06:16:34.047Z,100731.69
2022-09-23T06:19:06.316Z,100734.47
2022-09-23T06:21:36.935Z,100727.38
2022-09-23T06:24:05.104Z,100720.00
2022-09-23T06:26:35.370Z,100726.47
2022-09-23T06:29:03.381Z,100724.00
2022-09-23T06:31:30.608Z,100724.91
2022-09-23T06:34:07.508Z,100717.69
2022-09-23T06:36:43.410Z,100719.72
2022-09-23T06:39:11.406Z,100716.25
2022-09-23T06:41:39.211Z,100717.25
2022-09-23T06:44:06.234Z,100713.47
2022-09-23T06:46:33.578Z,100715.25
2022-09-23T06:49:02.119Z,100711.13
2022-09-23T06:51:29.120Z,100711.41
2022-09-23T06:53:56.047Z,100715.50
2022-09-23T06:56:23.792Z,100713.63
2022-09-23T06:58:52.786Z,100716.97
2022-09-23T07:01:20.072Z,100716.84
2022-09-23T07:03:48.493Z,100720.19
2022-09-23T07:06:17.242Z,100725.00
2022-09-23T07:08:51.256Z,100716.84
2022-09-23T07:11:22.451Z,100725.16
2022-09-23T07:13:49.761Z,100716.41
2022-09-23T07:16:16.813Z,100724.38
2022-09-23T07:18:45.075Z,100719.75
2022-09-23T07:21:16.017Z,100724.03
2022-09-23T07:23:48.884Z,100724.53
2022-09-23T07:26:17.184Z,100718.13
2022-09-23T07:28:44.305Z,100719.69
2022-09-23T07:31:17.746Z,100720.25
2022-09-23T07:33:49.178Z,100719.00
2022-09-23T07:36:18.956Z,100714.00
2022-09-23T07:38:47.478Z,100716.63
2022-09-23T07:41:18.471Z,100713.53
2022-09-23T07:43:46.991Z,100710.56
2022-09-23T07:46:17.638Z,100718.97
2022-09-23T07:48:46.032Z,100706.41
2022-09-23T07:51:34.740Z,100707.22
2022-09-23T07:54:05.399Z,100713.41
2022-09-23T07:56:32.392Z,100713.63
2022-09-23T07:59:03.870Z,100715.16
2022-09-23T08:01:38.160Z,100720.41
2022-09-23T08:04:30.681Z,100709.00
2022-09-23T08:07:05.646Z,100709.44
2022-09-23T08:09:41.689Z,100699.75
2022-09-23T08:12:16.351Z,100698.47
2022-09-23T08:14:43.934Z,100700.50
2022-09-23T08:17:13.124Z,100704.63
2022-09-23T08:19:40.068Z,100702.31
2022-09-23T08:22:07.017Z,100699.16
2022-09-23T08:24:33.962Z,100695.22
2022-09-23T08:27:01.110Z,100692.75
2022-09-23T08:29:28.067Z,100691.13
2022-09-23T08:31:55.568Z,100683.13
2022-09-23T08:34:23.745Z,100683.09
2022-09-23T08:36:52.431Z,100682.50
2022-09-23T08:39:20.952Z,100684.81
2022-09-23T08:41:59.052Z,100680.53
2022-09-23T08:44:45.333Z,100675.06
2022-09-23T08:47:20.951Z,100677.47
2022-09-23T08:50:08.758Z,100670.00
2022-09-23T08:52:55.030Z,100679.44
2022-09-23T08:55:34.492Z,100676.75
2022-09-23T08:58:51.245Z,100683.94
2022-09-23T09:01:52.060Z,100677.13
2022-09-23T09:04:43.141Z,100669.13
2022-09-23T09:10:21.331Z,100659.78
2022-09-23T09:13:00.322Z,100674.03
2022-09-23T09:15:28.571Z,100678.69
2022-09-23T09:18:05.311Z,100666.44
2022-09-23T09:20:57.797Z,100668.22
2022-09-23T09:23:52.034Z,100659.81
2022-09-23T09:26:28.814Z,100655.00
2022-09-23T09:29:23.820Z,100655.03
2022-09-23T09:31:57.803Z,100656.38
2022-09-23T09:34:38.255Z,100650.28
2022-09-23T09:37:19.054Z,100654.63
2022-09-23T09:39:46.115Z,100653.47
2022-09-23T09:42:26.101Z,100642.44
2022-09-23T09:45:02.212Z,100655.25
2022-09-23T09:47:38.936Z,100653.50
2022-09-23T09:50:10.624Z,100647.94
2022-09-23T09:52:43.737Z,100645.88
2022-09-23T09:55:13.548Z,100643.78
2022-09-23T09:57:53.692Z,100636.66
2022-09-23T10:00:26.766Z,100633.78
2022-09-23T10:03:01.805Z,100639.19
2022-09-23T10:05:34.918Z,100632.41
2022-09-23T10:08:33.499Z,100626.09
2022-09-23T10:11:07.968Z,100634.72
2022-09-23T10:13:36.260Z,100627.47
2022-09-23T10:16:04.277Z,100624.25
2022-09-23T10:18:39.356Z,100626.88
2022-09-23T10:21:14.458Z,100614.19
2022-09-23T10:23:48.813Z,100613.94
2022-09-23T10:26:19.075Z,100618.13
2022-09-23T10:28:52.347Z,100616.25
2022-09-23T10:31:34.571Z,100620.59
2022-09-23T10:34:20.773Z,100604.81
2022-09-23T10:37:13.767Z,100598.81
2022-09-23T10:39:59.516Z,100594.06
2022-09-23T10:43:20.168Z,100595.66
2022-09-23T10:46:08.578Z,100602.13
2022-09-23T10:48:59.845Z,100597.13
2022-09-23T10:51:45.009Z,100591.66
2022-09-23T10:54:46.257Z,100588.81
2022-09-23T10:57:46.548Z,100599.56
2022-09-23T11:00:46.960Z,100595.88
2022-09-23T11:03:19.640Z,100586.41
2022-09-23T11:05:48.722Z,100592.78
2022-09-23T11:08:33.928Z,100595.34
2022-09-23T11:11:55.603Z,100578.09
2022-09-23T11:14:51.551Z,100586.72
2022-09-23T11:18:07.155Z,100573.13
2022-09-23T11:20:39.180Z,100572.56
2022-09-23T11:23:43.335Z,100578.94
2022-09-23T11:26:23.589Z,100579.28
2022-09-23T11:29:22.552Z,100578.81
2022-09-23T11:32:34.442Z,100586.22
2022-09-23T11:35:48.562Z,100568.50
2022-09-23T11:38:26.255Z,100577.25
2022-09-23T11:41:01.678Z,100570.38
2022-09-23T11:43:35.607Z,100565.25
2022-09-23T11:46:17.777Z,100560.34
2022-09-23T11:48:56.702Z,100564.84
2022-09-23T11:51:39.029Z,100551.44
2022-09-23T11:54:23.129Z,100552.28
2022-09-23T11:57:04.824Z,100547.69
2022-09-23T11:59:57.453Z,100548.31
2022-09-23T12:03:00.082Z,100555.69
2022-09-23T12:05:45.369Z,100556.78
2022-09-23T12:08:25.549Z,100554.25
2022-09-23T12:11:06.643Z,100550.59
2022-09-23T12:14:11.607Z,100540.47
2022-09-23T12:16:55.176Z,100542.56
2022-09-23T12:20:16.109Z,100535.22
2022-09-23T12:23:03.398Z,100530.72
2022-09-23T12:25:57.935Z,100531.84
2022-09-23T12:28:29.255Z,100520.59
2022-09-23T12:31:00.516Z,100521.53
2022-09-23T12:33:31.216Z,100518.13
2022-09-23T12:36:08.029Z,100500.41
2022-09-23T12:38:49.969Z,100524.69
2022-09-23T12:41:36.576Z,100528.31
2022-09-23T12:44:15.068Z,100527.38
2022-09-23T12:46:44.736Z,100526.53
2022-09-23T12:49:37.719Z,100534.56
2022-09-23T12:52:16.765Z,100526.50
2022-09-23T12:54:51.658Z,100527.41
2022-09-23T12:57:33.606Z,100523.84
2022-09-23T13:00:29.863Z,100511.38
2022-09-23T13:03:19.141Z,100509.59
2022-09-23T13:06:11.681Z,100513.16
2022-09-23T13:08:42.492Z,100512.19
2022-09-23T13:11:35.193Z,100512.19
2022-09-23T13:14:05.291Z,100512.22
2022-09-23T13:16:38.185Z,100515.84
2022-09-23T13:19:26.626Z,100515.84
2022-09-23T13:22:11.128Z,100516.72
2022-09-23T13:25:00.282Z,100513.09
2022-09-23T13:27:35.573Z,100506.84
2022-09-23T13:30:21.234Z,100504.16
2022-09-23T13:33:00.805Z,100496.13
2022-09-23T13:35:52.911Z,100494.28
2022-09-23T13:38:29.780Z,100489.81
2022-09-23T13:41:23.118Z,100488.94
2022-09-23T13:43:55.976Z,100486.28
2022-09-23T13:46:31.407Z,100483.59
2022-09-23T13:48:58.693Z,100482.75
2022-09-23T13:51:36.380Z,100485.41
2022-09-23T13:54:05.206Z,100481.84
2022-09-23T13:56:35.379Z,100468.44
2022-09-23T13:59:28.360Z,100477.34
2022-09-23T14:02:16.971Z,100476.47
2022-09-23T14:04:44.591Z,100471.16
2022-09-23T14:07:15.576Z,100466.69
2022-09-23T14:09:48.524Z,100476.47
2022-09-23T14:12:22.020Z,100468.44
2022-09-23T14:14:51.844Z,100471.13
2022-09-23T14:17:23.022Z,100462.19
2022-09-23T14:19:51.341Z,100462.19
2022-09-23T14:22:29.881Z,100458.56
2022-09-23T14:24:58.525Z,100463.91
2022-09-23T14:27:32.144Z,100455.13
2022-09-23T14:30:02.225Z,100460.41
2022-09-23T14:32:30.287Z,100446.13
2022-09-23T14:34:59.880Z,100453.16
2022-09-23T14:38:07.270Z,100456.59
2022-09-23T14:40:36.915Z,100453.97
2022-09-23T14:43:30.122Z,100453.97
2022-09-23T14:45:58.987Z,100460.16
2022-09-23T14:48:33.816Z,100460.13
2022-09-23T14:51:13.261Z,100453.94
2022-09-23T14:53:49.048Z,100460.09
2022-09-23T14:56:22.797Z,100444.16
2022-09-23T14:59:00.100Z,100438.78
2022-09-23T15:01:36.613Z,100447.63
2022-09-23T15:04:21.705Z,100442.31
2022-09-23T15:07:00.628Z,100440.47
2022-09-23T15:09:39.357Z,100444.88
2022-09-23T15:12:16.002Z,100443.09
2022-09-23T15:14:54.099Z,100449.09
2022-09-23T15:17:23.995Z,100444.66
2022-09-23T15:19:58.269Z,100448.09
2022-09-23T15:22:25.810Z,100436.53
2022-09-23T15:24:55.048Z,100441.63
2022-09-23T15:27:31.701Z,100443.44
2022-09-23T15:30:17.194Z,100442.63
2022-09-23T15:32:46.689Z,100439.00
2022-09-23T15:35:17.467Z,100437.09
2022-09-23T15:37:46.934Z,100432.50
2022-09-23T15:40:32.880Z,100429.75
2022-09-23T15:43:11.233Z,100437.88
2022-09-23T15:45:44.732Z,100440.41
2022-09-23T15:48:16.742Z,100438.56
2022-09-23T15:50:47.453Z,100441.16
2022-09-23T15:53:23.362Z,100437.47
2022-09-23T15:55:51.747Z,100437.44
2022-09-23T15:58:20.587Z,100440.03
2022-09-23T16:00:56.861Z,100431.97
2022-09-23T16:03:28.595Z,100438.94
2022-09-23T16:06:00.684Z,100443.47
2022-09-23T16:08:29.442Z,100443.41
2022-09-23T16:10:56.787Z,100430.13
2022-09-23T16:13:23.775Z,100442.63
2022-09-23T16:15:50.733Z,100435.41
2022-09-23T16:18:18.054Z,100447.63
2022-09-23T16:20:47.375Z,100440.28
2022-09-23T16:23:35.895Z,100453.31
2022-09-23T16:26:15.721Z,100446.06
2022-09-23T16:28:46.575Z,100454.84
2022-09-23T16:31:17.658Z,100446.75
2022-09-23T16:33:46.566Z,100447.31
2022-09-23T16:36:27.068Z,100453.31
2022-09-23T16:38:55.703Z,100458.66
2022-09-23T16:41:24.773Z,100454.31
2022-09-23T16:43:53.015Z,100449.75
2022-09-23T16:46:21.035Z,100447.94
2022-09-23T16:48:52.607Z,100444.31
2022-09-23T16:51:27.117Z,100450.97
2022-09-23T16:53:56.077Z,100445.63
2022-09-23T16:56:28.841Z,100444.78
2022-09-23T16:58:56.539Z,100441.09
2022-09-23T17:01:45.354Z,100444.34
2022-09-23T17:04:13.612Z,100435.56
2022-09-23T17:06:45.036Z,100436.28
2022-09-23T17:09:12.352Z,100434.38
2022-09-23T17:11:39.769Z,100438.75
2022-09-23T17:14:06.670Z,100437.13
2022-09-23T17:16:34.822Z,100443.09
2022-09-23T17:19:08.228Z,100441.38
2022-09-23T17:21:35.687Z,100433.22
2022-09-23T17:24:03.292Z,100441.50
2022-09-23T17:26:30.605Z,100438.72
2022-09-23T17:28:59.743Z,100444.94
2022-09-23T17:31:26.871Z,100449.47
2022-09-23T17:33:54.238Z,100445.84
2022-09-23T17:36:21.647Z,100445.97
2022-09-23T17:38:53.721Z,100451.19
2022-09-23T17:41:21.486Z,100445.94
2022-09-23T17:43:55.024Z,100447.56
2022-09-23T17:46:22.188Z,100443.22
2022-09-23T17:48:49.131Z,100442.19
2022-09-23T17:51:21.654Z,100452.13
2022-09-23T17:53:49.752Z,100446.91
2022-09-23T17:56:29.855Z,100446.69
2022-09-23T17:59:04.518Z,100449.31
2022-09-23T18:01:31.950Z,100444.91
2022-09-23T18:04:02.129Z,100451.19
2022-09-23T18:06:31.847Z,100445.78
2022-09-23T18:09:06.737Z,100453.72
2022-09-23T18:11:37.574Z,100457.16
2022-09-23T18:14:15.511Z,100455.34
2022-09-23T18:16:45.743Z,100462.91
2022-09-23T18:19:16.014Z,100461.94
2022-09-23T18:21:50.500Z,100466.31
2022-09-23T18:24:34.781Z,100461.94
2022-09-23T18:27:02.245Z,100464.59
2022-09-23T18:29:29.682Z,100454.75
2022-09-23T18:31:56.858Z,100466.44
2022-09-23T18:34:24.321Z,100459.19
2022-09-23T18:36:51.570Z,100457.50
2022-09-23T18:39:18.545Z,100464.63
2022-09-23T18:41:45.533Z,100467.16
2022-09-23T18:44:12.587Z,100467.09
2022-09-23T18:46:39.729Z,100463.56
2022-09-23T18:49:25.392Z,100469.91
2022-09-23T18:51:55.652Z,100468.84
2022-09-23T18:54:25.462Z,100467.25
2022-09-23T18:56:55.568Z,100469.09
2022-09-23T18:59:25.426Z,100465.41
2022-09-23T19:01:55.539Z,100470.69
2022-09-23T19:04:25.512Z,100459.88
2022-09-23T19:06:53.979Z,100468.09
2022-09-23T19:09:21.035Z,100459.84
2022-09-23T19:11:52.398Z,100468.75
2022-09-23T19:14:20.051Z,100466.78
2022-09-23T19:16:49.030Z,100459.19
2022-09-23T19:19:16.102Z,100467.75
2022-09-23T19:21:43.517Z,100460.78
2022-09-23T19:24:16.190Z,100463.56
2022-09-23T19:26:44.307Z,100461.66
2022-09-23T19:29:19.586Z,100462.50
2022-09-23T19:31:46.781Z,100470.34
2022-09-23T19:34:20.009Z,100463.31
2022-09-23T19:36:47.742Z,100473.88
2022-09-23T19:39:30.619Z,100469.84
2022-09-23T19:41:59.001Z,100466.00
2022-09-23T19:44:26.971Z,100472.03
2022-09-23T19:46:56.774Z,100475.81
2022-09-23T19:49:25.080Z,100468.63
2022-09-23T19:51:56.222Z,100469.41
2022-09-23T19:54:27.488Z,100462.81
2022-09-23T19:56:55.152Z,100459.59
2022-09-23T19:59:22.144Z,100460.19
2022-09-23T20:01:49.562Z,100458.28
2022-09-23T20:04:17.093Z,100461.22
2022-09-23T20:06:44.068Z,100468.69
2022-09-23T20:09:11.509Z,100471.88
2022-09-23T20:11:38.864Z,100465.84
2022-09-23T20:14:06.550Z,100471.53
2022-09-23T20:16:36.968Z,100463.56
2022-09-23T20:19:05.676Z,100454.38
2022-09-23T20:21:33.744Z,100461.03
2022-09-23T20:24:01.436Z,100464.69
2022-09-23T20:26:47.424Z,100457.44
2022-09-23T20:29:14.543Z,100460.13
2022-09-23T20:31:41.737Z,100458.28
2022-09-23T20:34:10.610Z,100451.03
2022-09-23T20:36:40.018Z,100456.13
2022-09-23T20:39:07.499Z,100454.88
2022-09-23T20:41:38.012Z,100452.22
2022-09-23T20:44:14.080Z,100453.25
2022-09-23T20:46:48.098Z,100451.16
2022-09-23T20:49:17.361Z,100449.97
2022-09-23T20:51:44.605Z,100448.22
2022-09-23T20:54:12.310Z,100451.63
2022-09-23T20:56:39.443Z,100451.44
2022-09-23T20:59:06.718Z,100440.53
2022-09-23T21:01:35.300Z,100437.69
2022-09-23T21:04:08.010Z,100449.41
2022-09-23T21:06:37.474Z,100453.88
2022-09-23T21:09:05.623Z,100452.13
2022-09-23T21:11:32.634Z,100459.50
2022-09-23T21:14:01.126Z,100453.94
2022-09-23T21:16:28.782Z,100455.03
2022-09-23T21:18:56.053Z,100449.63
2022-09-23T21:21:23.045Z,100463.47
2022-09-23T21:23:50.867Z,100453.00
2022-09-23T21:26:23.877Z,100452.88
2022-09-23T21:28:53.719Z,100450.59
2022-09-23T21:31:25.783Z,100462.91
2022-09-23T21:34:01.580Z,100459.22
2022-09-23T21:36:34.659Z,100460.28
2022-09-23T21:39:04.579Z,100453.97
2022-09-23T21:41:32.501Z,100462.06
2022-09-23T21:44:00.382Z,100464.09
2022-09-23T21:46:28.327Z,100463.09
2022-09-23T21:48:58.225Z,100460.41
2022-09-23T21:51:36.582Z,100462.09
2022-09-23T21:54:03.850Z,100452.38
2022-09-23T21:56:37.850Z,100459.28
2022-09-23T21:59:05.819Z,100459.53
2022-09-23T22:01:38.275Z,100458.09
2022-09-23T22:04:18.626Z,100462.38
2022-09-23T22:06:46.786Z,100455.84
2022-09-23T22:09:20.418Z,100457.41
2022-09-23T22:12:09.675Z,100461.84
2022-09-23T22:14:36.912Z,100459.34
2022-09-23T22:17:05.847Z,100469.31
2022-09-23T22:19:40.336Z,100462.72
2022-09-23T22:22:13.330Z,100460.47
2022-09-23T22:24:45.109Z,100452.97
2022-09-23T22:27:16.000Z,100451.34
2022-09-23T22:30:02.469Z,100453.25
2022-09-23T22:32:41.911Z,100440.50
2022-09-23T22:35:17.690Z,100452.50
2022-09-23T22:37:45.326Z,100443.72
2022-09-23T22:40:14.863Z,100444.97
2022-09-23T22:42:43.121Z,100442.66
2022-09-23T22:45:11.861Z,100448.50
2022-09-23T22:47:41.019Z,100443.47
2022-09-23T22:50:09.480Z,100440.97
2022-09-23T22:52:37.915Z,100438.25
2022-09-23T22:55:08.090Z,100440.13
2022-09-23T22:57:35.333Z,100438.19
2022-09-23T23:00:05.568Z,100430.53
2022-09-23T23:02:33.100Z,100425.41
2022-09-23T23:05:00.497Z,100407.41
2022-09-23T23:07:27.555Z,100431.28
2022-09-23T23:09:54.546Z,100423.13
2022-09-23T23:12:21.736Z,100421.41
2022-09-23T23:14:49.543Z,100420.22
2022-09-23T23:17:17.324Z,100417.91
2022-09-23T23:19:44.559Z,100421.06
2022-09-23T23:22:11.604Z,100419.72
2022-09-23T23:24:38.624Z,100417.50
2022-09-23T23:27:05.583Z,100414.09
2022-09-23T23:29:32.545Z,100415.16
2022-09-23T23:31:59.621Z,100416.00
2022-09-23T23:34:26.592Z,100421.09
2022-09-23T23:36:55.098Z,100402.22
2022-09-23T23:39:24.163Z,100416.41
2022-09-23T23:41:56.765Z,100420.94
2022-09-23T23:44:25.458Z,100422.72
2022-09-23T23:46:55.664Z,100429.41
2022-09-23T23:49:22.924Z,100427.56
2022-09-23T23:51:50.042Z,100425.19
2022-09-23T23:54:17.053Z,100424.41
2022-09-23T23:56:44.088Z,100419.84
2022-09-23T23:59:11.432Z,100411.78
